sensor_id;sensor_type;location;lat;lon;timestamp;P1;durP1;ratioP1;P2;durP2;ratioP2
21120;SDS011;12519;43.318;21.898;2023-03-25T00:04:29;41.0;;;37.0;;
21120;SDS011;12519;43.318;21.898;2023-03-25T00:09:05;43.0;;;37.0;;
21120;SDS011;12519;43.318;21.898;2023-03-25T00:13:42;43.0;;;37.0;;
21120;SDS011;12519;43.318;21.898;2023-03-25T00:18:20;45.0;;;37.0;;
21120;SDS011;12519;43.318;21.898;2023-03-25T00:22:57;45.0;;;37.0;;
21120;SDS011;12519;43.318;21.898;2023-03-25T00:27:34;44.0;;;37.0;;
21120;SDS011;12519;43.318;21.898;2023-03-25T00:32:14;44.0;;;37.0;;
21120;SDS011;12519;43.318;21.898;2023-03-25T00:36:51;44.0;;;37.0;;
21120;SDS011;12519;43.318;21.898;2023-03-25T00:41:27;42.0;;;37.0;;
21120;SDS011;12519;43.318;21.898;2023-03-25T00:46:05;42.0;;;37.0;;
21120;SDS011;12519;43.318;21.898;2023-03-25T00:50:41;40.0;;;36.0;;
21120;SDS011;12519;43.318;21.898;2023-03-25T00:55:18;40.0;;;36.0;;
21120;SDS011;12519;43.318;21.898;2023-03-25T00:59:56;39.0;;;34.0;;
21120;SDS011;12519;43.318;21.898;2023-03-25T01:04:33;39.0;;;34.0;;
21120;SDS011;12519;43.318;21.898;2023-03-25T01:09:13;44.0;;;36.0;;
21120;SDS011;12519;43.318;21.898;2023-03-25T01:13:50;44.0;;;36.0;;
21120;SDS011;12519;43.318;21.898;2023-03-25T01:18:29;48.0;;;39.0;;
21120;SDS011;12519;43.318;21.898;2023-03-25T01:23:06;48.0;;;39.0;;
21120;SDS011;12519;43.318;21.898;2023-03-25T01:27:43;43.0;;;38.0;;
21120;SDS011;12519;43.318;21.898;2023-03-25T01:32:20;43.0;;;38.0;;
21120;SDS011;12519;43.318;21.898;2023-03-25T01:36:57;43.0;;;38.0;;
21120;SDS011;12519;43.318;21.898;2023-03-25T01:41:35;38.0;;;36.0;;
21120;SDS011;12519;43.318;21.898;2023-03-25T01:46:12;38.0;;;36.0;;
21120;SDS011;12519;43.318;21.898;2023-03-25T01:50:57;40.0;;;33.0;;
21120;SDS011;12519;43.318;21.898;2023-03-25T01:55:46;40.0;;;33.0;;
21120;SDS011;12519;43.318;21.898;2023-03-25T02:00:24;41.0;;;30.0;;
21120;SDS011;12519;43.318;21.898;2023-03-25T02:05:08;41.0;;;30.0;;
21120;SDS011;12519;43.318;21.898;2023-03-25T02:10:01;36.0;;;29.0;;
21120;SDS011;12519;43.318;21.898;2023-03-25T02:14:45;36.0;;;29.0;;
21120;SDS011;12519;43.318;21.898;2023-03-25T02:20:20;32.0;;;28.0;;
21120;SDS011;12519;43.318;21.898;2023-03-25T02:27:14;32.0;;;28.0;;
21120;SDS011;12519;43.318;21.898;2023-03-25T02:33:32;34.0;;;28.0;;
21120;SDS011;12519;43.318;21.898;2023-03-25T02:39:20;36.0;;;29.0;;
21120;SDS011;12519;43.318;21.898;2023-03-25T02:44:30;36.0;;;29.0;;
21120;SDS011;12519;43.318;21.898;2023-03-25T02:49:35;32.0;;;26.0;;
21120;SDS011;12519;43.318;21.898;2023-03-25T02:54:35;32.0;;;26.0;;
21120;SDS011;12519;43.318;21.898;2023-03-25T02:59:19;27.0;;;22.0;;
21120;SDS011;12519;43.318;21.898;2023-03-25T03:03:56;27.0;;;22.0;;
21120;SDS011;12519;43.318;21.898;2023-03-25T03:09:16;24.0;;;20.0;;
21120;SDS011;12519;43.318;21.898;2023-03-25T03:14:42;24.0;;;20.0;;
21120;SDS011;12519;43.318;21.898;2023-03-25T03:19:59;21.0;;;18.0;;
21120;SDS011;12519;43.318;21.898;2023-03-25T03:25:20;21.0;;;18.0;;
21120;SDS011;12519;43.318;21.898;2023-03-25T03:30:23;18.0;;;16.0;;
21120;SDS011;12519;43.318;21.898;2023-03-25T03:35:19;18.0;;;16.0;;
21120;SDS011;12519;43.318;21.898;2023-03-25T03:40:14;16.0;;;15.0;;
21120;SDS011;12519;43.318;21.898;2023-03-25T03:45:07;16.0;;;15.0;;
21120;SDS011;12519;43.318;21.898;2023-03-25T03:50:04;18.0;;;14.0;;
21120;SDS011;12519;43.318;21.898;2023-03-25T03:54:57;18.0;;;14.0;;
21120;SDS011;12519;43.318;21.898;2023-03-25T03:59:56;19.0;;;14.0;;
21120;SDS011;12519;43.318;21.898;2023-03-25T04:04:45;19.0;;;14.0;;
21120;SDS011;12519;43.318;21.898;2023-03-25T04:09:33;18.0;;;14.0;;
21120;SDS011;12519;43.318;21.898;2023-03-25T04:14:37;18.0;;;14.0;;
21120;SDS011;12519;43.318;21.898;2023-03-25T04:19:15;17.0;;;13.0;;
21120;SDS011;12519;43.318;21.898;2023-03-25T04:23:51;17.0;;;13.0;;
21120;SDS011;12519;43.318;21.898;2023-03-25T04:28:29;16.0;;;13.0;;
21120;SDS011;12519;43.318;21.898;2023-03-25T04:33:06;16.0;;;13.0;;
21120;SDS011;12519;43.318;21.898;2023-03-25T04:37:43;16.0;;;13.0;;
21120;SDS011;12519;43.318;21.898;2023-03-25T04:42:22;16.0;;;13.0;;
21120;SDS011;12519;43.318;21.898;2023-03-25T04:47:01;16.0;;;13.0;;
21120;SDS011;12519;43.318;21.898;2023-03-25T04:51:39;14.0;;;12.0;;
21120;SDS011;12519;43.318;21.898;2023-03-25T04:56:17;14.0;;;12.0;;
21120;SDS011;12519;43.318;21.898;2023-03-25T05:00:55;12.0;;;12.0;;
21120;SDS011;12519;43.318;21.898;2023-03-25T05:05:34;12.0;;;12.0;;
21120;SDS011;12519;43.318;21.898;2023-03-25T05:10:13;26.0;;;22.0;;
21120;SDS011;12519;43.318;21.898;2023-03-25T05:14:53;26.0;;;22.0;;
21120;SDS011;12519;43.318;21.898;2023-03-25T05:19:30;41.0;;;31.0;;
21120;SDS011;12519;43.318;21.898;2023-03-25T05:24:11;41.0;;;31.0;;
21120;SDS011;12519;43.318;21.898;2023-03-25T05:28:49;30.0;;;24.0;;
21120;SDS011;12519;43.318;21.898;2023-03-25T05:33:26;30.0;;;24.0;;
21120;SDS011;12519;43.318;21.898;2023-03-25T05:38:04;19.0;;;18.0;;
21120;SDS011;12519;43.318;21.898;2023-03-25T05:42:43;19.0;;;18.0;;
21120;SDS011;12519;43.318;21.898;2023-03-25T05:47:23;19.0;;;18.0;;
21120;SDS011;12519;43.318;21.898;2023-03-25T05:52:00;18.0;;;17.0;;
21120;SDS011;12519;43.318;21.898;2023-03-25T05:56:37;18.0;;;17.0;;
21120;SDS011;12519;43.318;21.898;2023-03-25T06:01:18;17.0;;;16.0;;
21120;SDS011;12519;43.318;21.898;2023-03-25T06:05:56;17.0;;;16.0;;
21120;SDS011;12519;43.318;21.898;2023-03-25T06:10:32;20.0;;;18.0;;
21120;SDS011;12519;43.318;21.898;2023-03-25T06:15:13;20.0;;;18.0;;
21120;SDS011;12519;43.318;21.898;2023-03-25T06:19:52;22.0;;;19.0;;
21120;SDS011;12519;43.318;21.898;2023-03-25T06:24:29;22.0;;;19.0;;
21120;SDS011;12519;43.318;21.898;2023-03-25T06:29:05;25.0;;;22.0;;
21120;SDS011;12519;43.318;21.898;2023-03-25T06:33:42;25.0;;;22.0;;
21120;SDS011;12519;43.318;21.898;2023-03-25T06:38:21;28.0;;;24.0;;
21120;SDS011;12519;43.318;21.898;2023-03-25T06:42:58;28.0;;;24.0;;
21120;SDS011;12519;43.318;21.898;2023-03-25T06:47:34;28.0;;;24.0;;
21120;SDS011;12519;43.318;21.898;2023-03-25T06:52:11;29.0;;;24.0;;
21120;SDS011;12519;43.318;21.898;2023-03-25T06:56:49;29.0;;;24.0;;
21120;SDS011;12519;43.318;21.898;2023-03-25T07:01:25;30.0;;;23.0;;
21120;SDS011;12519;43.318;21.898;2023-03-25T07:06:05;30.0;;;23.0;;
21120;SDS011;12519;43.318;21.898;2023-03-25T07:10:42;26.0;;;21.0;;
21120;SDS011;12519;43.318;21.898;2023-03-25T07:15:18;26.0;;;21.0;;
21120;SDS011;12519;43.318;21.898;2023-03-25T07:19:55;23.0;;;19.0;;
21120;SDS011;12519;43.318;21.898;2023-03-25T07:24:31;23.0;;;19.0;;
21120;SDS011;12519;43.318;21.898;2023-03-25T07:29:08;22.0;;;18.0;;
21120;SDS011;12519;43.318;21.898;2023-03-25T07:33:44;22.0;;;18.0;;
21120;SDS011;12519;43.318;21.898;2023-03-25T07:38:21;20.0;;;17.0;;
21120;SDS011;12519;43.318;21.898;2023-03-25T07:42:58;20.0;;;17.0;;
21120;SDS011;12519;43.318;21.898;2023-03-25T07:47:34;20.0;;;17.0;;
21120;SDS011;12519;43.318;21.898;2023-03-25T07:52:12;63.0;;;49.0;;
21120;SDS011;12519;43.318;21.898;2023-03-25T07:56:48;63.0;;;49.0;;
21120;SDS011;12519;43.318;21.898;2023-03-25T08:01:25;106.0;;;81.0;;
21120;SDS011;12519;43.318;21.898;2023-03-25T08:06:02;106.0;;;81.0;;
21120;SDS011;12519;43.318;21.898;2023-03-25T08:10:43;68.0;;;55.0;;
21120;SDS011;12519;43.318;21.898;2023-03-25T08:15:21;68.0;;;55.0;;
21120;SDS011;12519;43.318;21.898;2023-03-25T08:19:58;31.0;;;29.0;;
21120;SDS011;12519;43.318;21.898;2023-03-25T08:24:35;31.0;;;29.0;;
21120;SDS011;12519;43.318;21.898;2023-03-25T08:29:11;31.0;;;26.0;;
21120;SDS011;12519;43.318;21.898;2023-03-25T08:33:48;31.0;;;26.0;;
21120;SDS011;12519;43.318;21.898;2023-03-25T08:38:25;31.0;;;24.0;;
21120;SDS011;12519;43.318;21.898;2023-03-25T08:43:05;31.0;;;24.0;;
21120;SDS011;12519;43.318;21.898;2023-03-25T08:47:42;31.0;;;24.0;;
21120;SDS011;12519;43.318;21.898;2023-03-25T08:52:20;24.0;;;20.0;;
21120;SDS011;12519;43.318;21.898;2023-03-25T08:56:57;24.0;;;20.0;;
21120;SDS011;12519;43.318;21.898;2023-03-25T09:01:33;18.0;;;15.0;;
21120;SDS011;12519;43.318;21.898;2023-03-25T09:06:09;18.0;;;15.0;;
21120;SDS011;12519;43.318;21.898;2023-03-25T09:10:46;18.0;;;15.0;;
21120;SDS011;12519;43.318;21.898;2023-03-25T09:15:23;18.0;;;15.0;;
21120;SDS011;12519;43.318;21.898;2023-03-25T09:19:59;17.0;;;15.0;;
21120;SDS011;12519;43.318;21.898;2023-03-25T09:24:36;17.0;;;15.0;;
21120;SDS011;12519;43.318;21.898;2023-03-25T09:29:12;16.0;;;14.0;;
21120;SDS011;12519;43.318;21.898;2023-03-25T09:33:49;16.0;;;14.0;;
21120;SDS011;12519;43.318;21.898;2023-03-25T09:38:25;15.0;;;13.0;;
21120;SDS011;12519;43.318;21.898;2023-03-25T09:43:31;15.0;;;13.0;;
21120;SDS011;12519;43.318;21.898;2023-03-25T09:48:39;14.0;;;12.0;;
21120;SDS011;12519;43.318;21.898;2023-03-25T09:53:35;14.0;;;12.0;;
21120;SDS011;12519;43.318;21.898;2023-03-25T09:58:41;13.0;;;11.0;;
21120;SDS011;12519;43.318;21.898;2023-03-25T10:03:34;13.0;;;11.0;;
21120;SDS011;12519;43.318;21.898;2023-03-25T10:08:51;13.0;;;12.0;;
21120;SDS011;12519;43.318;21.898;2023-03-25T10:14:04;13.0;;;12.0;;
21120;SDS011;12519;43.318;21.898;2023-03-25T10:19:22;13.0;;;12.0;;
21120;SDS011;12519;43.318;21.898;2023-03-25T10:24:42;13.0;;;12.0;;
21120;SDS011;12519;43.318;21.898;2023-03-25T10:29:40;11.0;;;10.0;;
21120;SDS011;12519;43.318;21.898;2023-03-25T10:34:43;11.0;;;10.0;;
21120;SDS011;12519;43.318;21.898;2023-03-25T10:39:31;9.0;;;8.0;;
21120;SDS011;12519;43.318;21.898;2023-03-25T10:44:10;9.0;;;8.0;;
21120;SDS011;12519;43.318;21.898;2023-03-25T10:48:49;9.0;;;8.0;;
21120;SDS011;12519;43.318;21.898;2023-03-25T10:53:28;9.0;;;8.0;;
21120;SDS011;12519;43.318;21.898;2023-03-25T10:58:05;9.0;;;8.0;;
21120;SDS011;12519;43.318;21.898;2023-03-25T11:02:42;9.0;;;9.0;;
21120;SDS011;12519;43.318;21.898;2023-03-25T11:07:29;9.0;;;9.0;;
21120;SDS011;12519;43.318;21.898;2023-03-25T11:12:20;11.0;;;10.0;;
21120;SDS011;12519;43.318;21.898;2023-03-25T11:17:03;11.0;;;10.0;;
21120;SDS011;12519;43.318;21.898;2023-03-25T11:22:00;13.0;;;11.0;;
21120;SDS011;12519;43.318;21.898;2023-03-25T11:26:52;13.0;;;11.0;;
21120;SDS011;12519;43.318;21.898;2023-03-25T11:31:36;20.0;;;16.0;;
21120;SDS011;12519;43.318;21.898;2023-03-25T11:36:28;20.0;;;16.0;;
21120;SDS011;12519;43.318;21.898;2023-03-25T11:41:13;28.0;;;20.0;;
21120;SDS011;12519;43.318;21.898;2023-03-25T11:45:50;28.0;;;20.0;;
21120;SDS011;12519;43.318;21.898;2023-03-25T11:50:29;19.0;;;15.0;;
21120;SDS011;12519;43.318;21.898;2023-03-25T11:55:18;19.0;;;15.0;;
21120;SDS011;12519;43.318;21.898;2023-03-25T12:00:19;10.0;;;10.0;;
21120;SDS011;12519;43.318;21.898;2023-03-25T12:05:18;10.0;;;10.0;;
21120;SDS011;12519;43.318;21.898;2023-03-25T12:10:04;9.0;;;8.0;;
21120;SDS011;12519;43.318;21.898;2023-03-25T12:15:16;9.0;;;8.0;;
21120;SDS011;12519;43.318;21.898;2023-03-25T12:20:32;8.0;;;7.0;;
21120;SDS011;12519;43.318;21.898;2023-03-25T12:26:09;8.0;;;7.0;;
21120;SDS011;12519;43.318;21.898;2023-03-25T12:31:19;8.0;;;7.0;;
21120;SDS011;12519;43.318;21.898;2023-03-25T12:36:55;8.0;;;7.0;;
21120;SDS011;12519;43.318;21.898;2023-03-25T12:42:31;7.0;;;7.0;;
21120;SDS011;12519;43.318;21.898;2023-03-25T12:47:42;7.0;;;7.0;;
21120;SDS011;12519;43.318;21.898;2023-03-25T12:52:47;14.0;;;11.0;;
21120;SDS011;12519;43.318;21.898;2023-03-25T12:58:06;14.0;;;11.0;;
21120;SDS011;12519;43.318;21.898;2023-03-25T13:04:03;20.0;;;15.0;;
21120;SDS011;12519;43.318;21.898;2023-03-25T13:09:52;16.0;;;12.0;;
21120;SDS011;12519;43.318;21.898;2023-03-25T13:15:05;16.0;;;12.0;;
21120;SDS011;12519;43.318;21.898;2023-03-25T13:20:03;12.0;;;10.0;;
21120;SDS011;12519;43.318;21.898;2023-03-25T13:24:57;12.0;;;10.0;;
21120;SDS011;12519;43.318;21.898;2023-03-25T13:29:51;12.0;;;11.0;;
21120;SDS011;12519;43.318;21.898;2023-03-25T13:34:48;12.0;;;11.0;;
21120;SDS011;12519;43.318;21.898;2023-03-25T13:40:05;13.0;;;12.0;;
21120;SDS011;12519;43.318;21.898;2023-03-25T13:45:17;13.0;;;12.0;;
21120;SDS011;12519;43.318;21.898;2023-03-25T13:50:13;22.0;;;18.0;;
21120;SDS011;12519;43.318;21.898;2023-03-25T13:55:12;22.0;;;18.0;;
21120;SDS011;12519;43.318;21.898;2023-03-25T14:00:32;32.0;;;24.0;;
21120;SDS011;12519;43.318;21.898;2023-03-25T14:06:42;32.0;;;24.0;;
21120;SDS011;12519;43.318;21.898;2023-03-25T14:12:05;24.0;;;20.0;;
21120;SDS011;12519;43.318;21.898;2023-03-25T14:16:51;24.0;;;20.0;;
21120;SDS011;12519;43.318;21.898;2023-03-25T14:21:45;16.0;;;15.0;;
21120;SDS011;12519;43.318;21.898;2023-03-25T14:26:27;16.0;;;15.0;;
21120;SDS011;12519;43.318;21.898;2023-03-25T14:31:24;14.0;;;13.0;;
21120;SDS011;12519;43.318;21.898;2023-03-25T14:36:07;14.0;;;13.0;;
21120;SDS011;12519;43.318;21.898;2023-03-25T14:40:49;12.0;;;11.0;;
21120;SDS011;12519;43.318;21.898;2023-03-25T14:45:57;12.0;;;11.0;;
21120;SDS011;12519;43.318;21.898;2023-03-25T14:50:40;12.0;;;10.0;;
21120;SDS011;12519;43.318;21.898;2023-03-25T14:55:27;12.0;;;10.0;;
21120;SDS011;12519;43.318;21.898;2023-03-25T15:00:22;11.0;;;9.0;;
21120;SDS011;12519;43.318;21.898;2023-03-25T15:05:19;11.0;;;9.0;;
21120;SDS011;12519;43.318;21.898;2023-03-25T15:10:05;11.0;;;10.0;;
21120;SDS011;12519;43.318;21.898;2023-03-25T15:15:07;11.0;;;10.0;;
21120;SDS011;12519;43.318;21.898;2023-03-25T15:20:32;11.0;;;10.0;;
21120;SDS011;12519;43.318;21.898;2023-03-25T15:25:18;11.0;;;10.0;;
21120;SDS011;12519;43.318;21.898;2023-03-25T15:30:29;10.0;;;9.0;;
21120;SDS011;12519;43.318;21.898;2023-03-25T15:36:25;10.0;;;9.0;;
21120;SDS011;12519;43.318;21.898;2023-03-25T15:42:41;10.0;;;8.0;;
21120;SDS011;12519;43.318;21.898;2023-03-25T15:48:53;10.0;;;8.0;;
21120;SDS011;12519;43.318;21.898;2023-03-25T15:54:35;10.0;;;8.0;;
21120;SDS011;12519;43.318;21.898;2023-03-25T15:59:37;10.0;;;9.0;;
21120;SDS011;12519;43.318;21.898;2023-03-25T16:04:37;10.0;;;9.0;;
21120;SDS011;12519;43.318;21.898;2023-03-25T16:09:27;10.0;;;9.0;;
21120;SDS011;12519;43.318;21.898;2023-03-25T16:14:12;10.0;;;9.0;;
21120;SDS011;12519;43.318;21.898;2023-03-25T16:18:56;10.0;;;9.0;;
21120;SDS011;12519;43.318;21.898;2023-03-25T16:23:36;11.0;;;9.0;;
21120;SDS011;12519;43.318;21.898;2023-03-25T16:28:22;11.0;;;9.0;;
21120;SDS011;12519;43.318;21.898;2023-03-25T16:33:15;12.0;;;10.0;;
21120;SDS011;12519;43.318;21.898;2023-03-25T16:38:01;12.0;;;10.0;;
21120;SDS011;12519;43.318;21.898;2023-03-25T16:42:40;13.0;;;10.0;;
21120;SDS011;12519;43.318;21.898;2023-03-25T16:47:17;13.0;;;10.0;;
21120;SDS011;12519;43.318;21.898;2023-03-25T16:52:11;15.0;;;12.0;;
21120;SDS011;12519;43.318;21.898;2023-03-25T16:56:51;15.0;;;12.0;;
21120;SDS011;12519;43.318;21.898;2023-03-25T17:01:35;17.0;;;15.0;;
21120;SDS011;12519;43.318;21.898;2023-03-25T17:06:23;17.0;;;15.0;;
21120;SDS011;12519;43.318;21.898;2023-03-25T17:11:12;18.0;;;14.0;;
21120;SDS011;12519;43.318;21.898;2023-03-25T17:15:51;18.0;;;14.0;;
21120;SDS011;12519;43.318;21.898;2023-03-25T17:20:39;20.0;;;12.0;;
21120;SDS011;12519;43.318;21.898;2023-03-25T17:25:30;20.0;;;12.0;;
21120;SDS011;12519;43.318;21.898;2023-03-25T17:30:43;20.0;;;14.0;;
21120;SDS011;12519;43.318;21.898;2023-03-25T17:35:29;20.0;;;14.0;;
21120;SDS011;12519;43.318;21.898;2023-03-25T17:40:07;21.0;;;16.0;;
21120;SDS011;12519;43.318;21.898;2023-03-25T17:44:57;21.0;;;16.0;;
21120;SDS011;12519;43.318;21.898;2023-03-25T17:49:34;20.0;;;16.0;;
21120;SDS011;12519;43.318;21.898;2023-03-25T17:54:11;20.0;;;16.0;;
21120;SDS011;12519;43.318;21.898;2023-03-25T17:58:48;20.0;;;16.0;;
21120;SDS011;12519;43.318;21.898;2023-03-25T18:03:33;19.0;;;15.0;;
21120;SDS011;12519;43.318;21.898;2023-03-25T18:08:16;19.0;;;15.0;;
21120;SDS011;12519;43.318;21.898;2023-03-25T18:12:53;15.0;;;12.0;;
21120;SDS011;12519;43.318;21.898;2023-03-25T18:17:29;15.0;;;12.0;;
21120;SDS011;12519;43.318;21.898;2023-03-25T18:22:05;11.0;;;9.0;;
21120;SDS011;12519;43.318;21.898;2023-03-25T18:26:44;11.0;;;9.0;;
21120;SDS011;12519;43.318;21.898;2023-03-25T18:31:21;9.0;;;7.0;;
21120;SDS011;12519;43.318;21.898;2023-03-25T18:35:57;9.0;;;7.0;;
21120;SDS011;12519;43.318;21.898;2023-03-25T18:40:35;7.0;;;5.0;;
21120;SDS011;12519;43.318;21.898;2023-03-25T18:45:12;7.0;;;5.0;;
21120;SDS011;12519;43.318;21.898;2023-03-25T18:49:49;10.0;;;8.0;;
21120;SDS011;12519;43.318;21.898;2023-03-25T18:54:26;10.0;;;8.0;;
21120;SDS011;12519;43.318;21.898;2023-03-25T18:59:03;10.0;;;8.0;;
21120;SDS011;12519;43.318;21.898;2023-03-25T19:03:39;12.0;;;11.0;;
21120;SDS011;12519;43.318;21.898;2023-03-25T19:08:19;12.0;;;11.0;;
21120;SDS011;12519;43.318;21.898;2023-03-25T19:12:55;14.0;;;12.0;;
21120;SDS011;12519;43.318;21.898;2023-03-25T19:17:32;14.0;;;12.0;;
21120;SDS011;12519;43.318;21.898;2023-03-25T19:22:08;17.0;;;12.0;;
21120;SDS011;12519;43.318;21.898;2023-03-25T19:26:44;17.0;;;12.0;;
21120;SDS011;12519;43.318;21.898;2023-03-25T19:31:21;16.0;;;14.0;;
21120;SDS011;12519;43.318;21.898;2023-03-25T19:35:59;16.0;;;14.0;;
21120;SDS011;12519;43.318;21.898;2023-03-25T19:40:37;16.0;;;15.0;;
21120;SDS011;12519;43.318;21.898;2023-03-25T19:45:15;16.0;;;15.0;;
21120;SDS011;12519;43.318;21.898;2023-03-25T19:49:52;15.0;;;14.0;;
21120;SDS011;12519;43.318;21.898;2023-03-25T19:54:29;15.0;;;14.0;;
21120;SDS011;12519;43.318;21.898;2023-03-25T19:59:05;15.0;;;14.0;;
21120;SDS011;12519;43.318;21.898;2023-03-25T20:03:42;14.0;;;13.0;;
21120;SDS011;12519;43.318;21.898;2023-03-25T20:08:19;14.0;;;13.0;;
21120;SDS011;12519;43.318;21.898;2023-03-25T20:12:57;13.0;;;12.0;;
21120;SDS011;12519;43.318;21.898;2023-03-25T20:17:34;13.0;;;12.0;;
21120;SDS011;12519;43.318;21.898;2023-03-25T20:22:11;12.0;;;10.0;;
21120;SDS011;12519;43.318;21.898;2023-03-25T20:26:47;12.0;;;10.0;;
21120;SDS011;12519;43.318;21.898;2023-03-25T20:31:24;12.0;;;11.0;;
21120;SDS011;12519;43.318;21.898;2023-03-25T20:36:01;12.0;;;11.0;;
21120;SDS011;12519;43.318;21.898;2023-03-25T20:40:37;12.0;;;12.0;;
21120;SDS011;12519;43.318;21.898;2023-03-25T20:45:16;12.0;;;12.0;;
21120;SDS011;12519;43.318;21.898;2023-03-25T20:49:53;12.0;;;11.0;;
21120;SDS011;12519;43.318;21.898;2023-03-25T20:54:29;12.0;;;11.0;;
21120;SDS011;12519;43.318;21.898;2023-03-25T20:59:06;12.0;;;11.0;;
21120;SDS011;12519;43.318;21.898;2023-03-25T21:03:42;13.0;;;10.0;;
21120;SDS011;12519;43.318;21.898;2023-03-25T21:08:19;13.0;;;10.0;;
21120;SDS011;12519;43.318;21.898;2023-03-25T21:12:56;10.0;;;8.0;;
21120;SDS011;12519;43.318;21.898;2023-03-25T21:17:33;10.0;;;8.0;;
21120;SDS011;12519;43.318;21.898;2023-03-25T21:22:09;7.0;;;6.0;;
21120;SDS011;12519;43.318;21.898;2023-03-25T21:26:46;7.0;;;6.0;;
21120;SDS011;12519;43.318;21.898;2023-03-25T21:31:25;6.0;;;5.0;;
21120;SDS011;12519;43.318;21.898;2023-03-25T21:36:07;6.0;;;5.0;;
21120;SDS011;12519;43.318;21.898;2023-03-25T21:40:44;4.0;;;4.0;;
21120;SDS011;12519;43.318;21.898;2023-03-25T21:45:20;4.0;;;4.0;;
21120;SDS011;12519;43.318;21.898;2023-03-25T21:49:57;4.0;;;4.0;;
21120;SDS011;12519;43.318;21.898;2023-03-25T21:54:33;4.0;;;4.0;;
21120;SDS011;12519;43.318;21.898;2023-03-25T21:59:10;4.0;;;4.0;;
21120;SDS011;12519;43.318;21.898;2023-03-25T22:03:47;5.0;;;4.0;;
21120;SDS011;12519;43.318;21.898;2023-03-25T22:08:25;5.0;;;4.0;;
21120;SDS011;12519;43.318;21.898;2023-03-25T22:13:02;6.0;;;4.0;;
21120;SDS011;12519;43.318;21.898;2023-03-25T22:17:38;6.0;;;4.0;;
21120;SDS011;12519;43.318;21.898;2023-03-25T22:22:16;6.0;;;5.0;;
21120;SDS011;12519;43.318;21.898;2023-03-25T22:26:54;6.0;;;5.0;;
21120;SDS011;12519;43.318;21.898;2023-03-25T22:31:34;5.0;;;4.0;;
21120;SDS011;12519;43.318;21.898;2023-03-25T22:36:14;5.0;;;4.0;;
21120;SDS011;12519;43.318;21.898;2023-03-25T22:40:51;4.0;;;4.0;;
21120;SDS011;12519;43.318;21.898;2023-03-25T22:45:28;4.0;;;4.0;;
21120;SDS011;12519;43.318;21.898;2023-03-25T22:50:05;6.0;;;6.0;;
21120;SDS011;12519;43.318;21.898;2023-03-25T22:54:44;6.0;;;6.0;;
21120;SDS011;12519;43.318;21.898;2023-03-25T22:59:21;6.0;;;6.0;;
21120;SDS011;12519;43.318;21.898;2023-03-25T23:03:58;8.0;;;7.0;;
21120;SDS011;12519;43.318;21.898;2023-03-25T23:08:37;8.0;;;7.0;;
21120;SDS011;12519;43.318;21.898;2023-03-25T23:13:15;7.0;;;6.0;;
21120;SDS011;12519;43.318;21.898;2023-03-25T23:17:52;7.0;;;6.0;;
21120;SDS011;12519;43.318;21.898;2023-03-25T23:22:28;6.0;;;6.0;;
21120;SDS011;12519;43.318;21.898;2023-03-25T23:27:08;6.0;;;6.0;;
21120;SDS011;12519;43.318;21.898;2023-03-25T23:31:48;6.0;;;6.0;;
21120;SDS011;12519;43.318;21.898;2023-03-25T23:36:26;6.0;;;6.0;;
21120;SDS011;12519;43.318;21.898;2023-03-25T23:41:12;5.0;;;5.0;;
21120;SDS011;12519;43.318;21.898;2023-03-25T23:45:57;5.0;;;5.0;;
21120;SDS011;12519;43.318;21.898;2023-03-25T23:50:35;5.0;;;4.0;;
21120;SDS011;12519;43.318;21.898;2023-03-25T23:55:12;5.0;;;4.0;;
21120;SDS011;12519;43.318;21.898;2023-03-25T23:59:49;5.0;;;4.0;;
